Time;durP1;ratioP1;P1;durP2;ratioP2;P2;SDS_P1;SDS_P2;PMS_P1;PMS_P2;Temp;Humidity;BMP_temperature;BMP_pressure;BME280_temperature;BME280_humidity;BME280_pressure;Samples;Min_cycle;Max_cycle;Signal;HPM_P1;HPM_P2
2021/04/07 00:01:09;;;;;;;15.32;5.97;;;;;;;7.08;81.06;97344.03;1757830;81;21139;-62
2021/04/07 00:03:40;;;;;;;9.35;5.83;;;;;;;7.11;81.04;97345.73;1757770;82;21050;-63
2021/04/07 00:06:08;;;;;;;11.65;6.00;;;;;;;7.13;80.96;97333.33;1757777;82;21057;-63
2021/04/07 00:08:36;;;;;;;14.93;6.70;;;;;;;7.20;80.91;97339.31;1757915;81;21048;-61
2021/04/07 00:11:06;;;;;;;13.18;6.58;;;;;;;7.27;80.60;97336.29;1757547;82;21053;-61
2021/04/07 00:13:38;;;;;;;12.00;7.42;;;;;;;7.30;80.52;97329.86;1757601;82;21030;-62
2021/04/07 00:16:07;;;;;;;12.75;6.92;;;;;;;7.35;80.38;97334.55;1757913;82;21042;-60
2021/04/07 00:18:35;;;;;;;15.35;7.50;;;;;;;7.33;80.40;97333.30;1757521;81;21065;-62
2021/04/07 00:21:05;;;;;;;12.07;6.92;;;;;;;7.32;80.41;97336.70;1757502;82;21017;-61
2021/04/07 00:23:33;;;;;;;13.43;7.55;;;;;;;7.33;80.48;97335.02;1757804;82;21031;-60
2021/04/07 00:26:01;;;;;;;15.25;7.83;;;;;;;7.36;80.50;97345.27;1757457;82;21034;-61
2021/04/07 00:28:30;;;;;;;16.35;7.90;;;;;;;7.42;80.48;97343.95;1757502;81;21042;-64
2021/04/07 00:31:01;;;;;;;18.40;8.18;;;;;;;7.48;80.42;97346.52;1757750;82;21050;-63
2021/04/07 00:33:29;;;;;;;15.53;8.60;;;;;;;7.54;80.33;97343.92;1757819;82;21634;-62
2021/04/07 00:35:58;;;;;;;16.00;9.55;;;;;;;7.61;80.18;97343.05;1757575;82;21196;-62
2021/04/07 00:38:29;;;;;;;14.57;9.40;;;;;;;7.59;79.87;97341.34;1758072;82;21045;-62
2021/04/07 00:40:58;;;;;;;17.70;11.55;;;;;;;7.55;79.89;97342.20;1757581;82;21195;-65
2021/04/07 00:43:27;;;;;;;23.45;13.38;;;;;;;7.49;79.77;97348.22;1757799;81;21239;-64
2021/04/07 00:45:56;;;;;;;20.97;12.68;;;;;;;7.41;79.72;97348.67;1749658;82;21041;-65
2021/04/07 00:48:31;;;;;;;18.92;12.45;;;;;;;7.32;79.86;97351.25;1757453;82;21424;-62
2021/04/07 00:50:59;;;;;;;22.22;13.70;;;;;;;7.25;80.09;97353.39;1757592;81;21081;-61
2021/04/07 00:53:29;;;;;;;18.77;13.38;;;;;;;7.21;80.30;97354.27;1757478;81;21037;-61
2021/04/07 00:55:58;;;;;;;19.95;12.50;;;;;;;7.21;80.39;97352.55;1757840;81;21010;-61
2021/04/07 00:58:27;;;;;;;17.60;11.80;;;;;;;7.14;80.42;97347.85;1757744;82;21061;-63
2021/04/07 01:00:56;;;;;;;19.55;12.07;;;;;;;6.97;80.46;97352.14;1757482;82;21061;-62
2021/04/07 01:03:24;;;;;;;19.32;12.10;;;;;;;6.66;81.04;97357.28;1757805;82;21409;-61
2021/04/07 01:06:00;;;;;;;16.67;10.40;;;;;;;6.42;81.68;97357.27;1757748;82;21607;-61
2021/04/07 01:08:28;;;;;;;18.32;12.37;;;;;;;6.21;82.52;97356.38;1757532;81;21204;-62
2021/04/07 01:10:58;;;;;;;21.37;12.95;;;;;;;6.05;82.95;97361.02;1732386;82;21053;-61
2021/04/07 01:13:26;;;;;;;16.23;11.30;;;;;;;5.87;83.80;97369.46;1757507;81;21061;-64
2021/04/07 01:15:56;;;;;;;18.87;11.50;;;;;;;5.68;84.53;97376.22;1757605;82;21041;-61
2021/04/07 01:18:26;;;;;;;17.25;11.48;;;;;;;5.63;85.10;97367.66;1757718;82;21049;-61
2021/04/07 01:20:56;;;;;;;16.52;10.55;;;;;;;5.64;85.54;97373.20;1757897;81;21433;-61
2021/04/07 01:23:24;;;;;;;14.10;9.70;;;;;;;5.69;85.74;97364.27;1757777;82;21441;-61
2021/04/07 01:25:54;;;;;;;16.32;10.23;;;;;;;5.68;85.84;97362.14;1757831;82;21057;-60
2021/04/07 01:28:22;;;;;;;17.90;10.05;;;;;;;5.59;86.02;97366.78;1757442;82;21460;-61
2021/04/07 01:30:51;;;;;;;17.45;9.30;;;;;;;5.50;86.32;97363.34;1757473;82;21010;-61
2021/04/07 01:33:24;;;;;;;14.63;8.93;;;;;;;5.34;86.62;97363.66;1757470;82;21053;-62
2021/04/07 01:35:53;;;;;;;16.00;9.40;;;;;;;5.27;87.06;97376.00;1757467;82;21010;-62
2021/04/07 01:38:22;;;;;;;13.62;9.03;;;;;;;5.24;87.53;97362.78;1757475;81;21210;-61
2021/04/07 01:40:55;;;;;;;11.57;7.60;;;;;;;5.11;87.82;97360.53;1757564;81;21041;-61
2021/04/07 01:43:25;;;;;;;11.95;7.87;;;;;;;4.95;88.12;97354.89;1757633;81;21081;-63
2021/04/07 01:45:56;;;;;;;13.00;6.97;;;;;;;4.70;88.41;97361.51;1757732;82;21010;-64
2021/04/07 01:48:26;;;;;;;11.07;7.13;;;;;;;4.56;89.00;97358.42;1757798;82;21037;-64
2021/04/07 01:50:55;;;;;;;11.90;7.37;;;;;;;4.49;89.24;97353.25;1757712;81;21891;-63
2021/04/07 01:53:23;;;;;;;11.03;7.25;;;;;;;4.48;89.75;97346.02;1757459;82;21037;-63
2021/04/07 01:55:54;;;;;;;10.65;7.08;;;;;;;4.45;89.83;97347.27;1757489;81;21463;-63
2021/04/07 01:58:24;;;;;;;12.15;6.87;;;;;;;4.39;90.01;97344.64;1755103;82;21018;-62
2021/04/07 02:00:53;;;;;;;9.48;6.20;;;;;;;4.34;90.37;97339.48;1757904;82;21041;-61
2021/04/07 02:03:21;;;;;;;10.95;7.80;;;;;;;4.31;90.58;97327.97;1757585;82;21014;-61
2021/04/07 02:05:48;;;;;;;11.05;6.90;;;;;;;4.35;90.87;97321.18;1757712;82;21192;-62
2021/04/07 02:08:16;;;;;;;13.43;6.65;;;;;;;4.35;90.76;97315.68;1757987;82;21171;-61
2021/04/07 02:10:46;;;;;;;10.95;6.37;;;;;;;4.32;90.92;97315.63;1757813;81;21026;-61
2021/04/07 02:13:21;;;;;;;12.50;8.08;;;;;;;4.32;91.09;97303.28;1757891;81;21065;-61
2021/04/07 02:15:49;;;;;;;;;;;;;;;4.31;91.18;97296.48;1760366;82;21480;-62
2021/04/07 02:18:17;;;;;;;12.03;7.42;;;;;;;4.34;91.38;97292.24;1757640;81;20141;-63
2021/04/07 02:20:45;;;;;;;15.63;6.87;;;;;;;4.42;91.42;97284.64;1757708;82;21042;-62
2021/04/07 02:23:13;;;;;;;11.75;7.03;;;;;;;4.44;91.13;97277.86;1757882;82;21046;-63
2021/04/07 02:25:41;;;;;;;12.20;6.50;;;;;;;4.44;91.11;97275.30;1757560;81;21014;-63
2021/04/07 02:28:09;;;;;;;12.25;6.87;;;;;;;4.46;91.03;97275.33;1757892;82;21058;-61
2021/04/07 02:30:38;;;;;;;12.78;7.03;;;;;;;4.45;91.02;97275.75;1757575;82;21034;-62
2021/04/07 02:33:06;;;;;;;12.88;7.55;;;;;;;4.39;90.98;97278.67;1757791;82;21091;-61
2021/04/07 02:35:34;;;;;;;12.45;6.78;;;;;;;4.37;91.24;97290.56;1757858;81;21175;-61
2021/04/07 02:38:02;;;;;;;10.43;6.30;;;;;;;4.37;91.29;97297.80;1757608;82;21030;-60
2021/04/07 02:40:35;;;;;;;13.13;7.15;;;;;;;4.30;91.20;97306.23;1758033;81;21042;-61
2021/04/07 02:43:03;;;;;;;11.25;6.55;;;;;;;4.25;91.46;97307.90;1757590;81;21223;-62
2021/04/07 02:45:31;;;;;;;10.00;6.33;;;;;;;4.17;91.63;97318.04;1763786;81;21049;-60
2021/04/07 02:47:59;;;;;;;12.18;6.45;;;;;;;4.08;91.87;97323.92;1764469;81;21026;-63
2021/04/07 02:50:27;;;;;;;10.93;5.95;;;;;;;4.09;92.15;97316.69;1764706;81;21009;-61
2021/04/07 02:52:55;;;;;;;9.65;6.17;;;;;;;4.08;91.91;97332.86;1764554;80;21175;-62
2021/04/07 02:55:24;;;;;;;9.85;5.47;;;;;;;4.05;91.96;97326.45;1764512;80;21037;-62
2021/04/07 02:57:54;;;;;;;11.18;5.67;;;;;;;3.99;91.92;97336.58;1764663;81;21448;-63
2021/04/07 03:00:26;;;;;;;8.80;5.20;;;;;;;3.96;91.88;97353.14;1764268;81;21180;-63
2021/04/07 03:02:54;;;;;;;10.85;5.08;;;;;;;3.90;92.02;97354.36;1764398;80;21185;-61
2021/04/07 03:05:24;;;;;;;8.30;4.92;;;;;;;3.85;92.22;97353.03;1764688;81;21171;-63
2021/04/07 03:07:51;;;;;;;14.98;6.20;;;;;;;3.80;92.48;97367.86;1764282;81;21042;-63
2021/04/07 03:10:21;;;;;;;7.87;4.80;;;;;;;3.80;92.81;97385.29;1764238;80;21022;-63
2021/04/07 03:12:49;;;;;;;9.25;5.67;;;;;;;3.79;92.91;97382.31;1764240;81;21049;-64
2021/04/07 03:15:17;;;;;;;8.78;5.03;;;;;;;3.74;93.00;97384.34;1764561;80;21187;-63
2021/04/07 03:17:45;;;;;;;9.65;4.70;;;;;;;3.72;93.20;97389.88;1764314;81;21184;-64
2021/04/07 03:20:14;;;;;;;8.40;4.40;;;;;;;3.65;93.26;97394.87;1764430;81;21192;-62
2021/04/07 03:22:46;;;;;;;7.37;4.40;;;;;;;3.63;93.33;97398.25;1764664;80;21046;-64
2021/04/07 03:25:16;;;;;;;9.95;5.20;;;;;;;3.64;93.49;97396.16;1764340;80;21180;-63
2021/04/07 03:27:44;;;;;;;8.78;4.22;;;;;;;3.65;93.33;97391.48;1764347;80;21172;-62
2021/04/07 03:30:17;;;;;;;6.50;3.50;;;;;;;3.62;93.29;97386.34;1762410;80;21065;-62
2021/04/07 03:32:45;;;;;;;6.75;3.87;;;;;;;3.53;93.24;97398.54;1764663;80;21420;-62
2021/04/07 03:35:14;;;;;;;9.53;4.30;;;;;;;3.44;93.42;97387.81;1764297;80;21006;-61
2021/04/07 03:37:43;;;;;;;7.30;3.70;;;;;;;3.36;93.59;97395.78;1764585;81;21570;-61
2021/04/07 03:40:13;;;;;;;5.62;3.00;;;;;;;3.32;93.65;97399.53;1764582;81;21057;-61
2021/04/07 03:42:43;;;;;;;5.28;3.20;;;;;;;3.32;93.77;97389.34;1764263;81;21041;-61
2021/04/07 03:45:13;;;;;;;6.58;3.47;;;;;;;3.32;93.73;97390.19;1760562;81;21089;-61
2021/04/07 03:47:44;;;;;;;4.35;2.70;;;;;;;3.31;93.67;97393.58;1757749;82;21192;-61
2021/04/07 03:50:14;;;;;;;5.95;3.80;;;;;;;3.34;93.69;97397.87;1757785;82;21176;-61
2021/04/07 03:52:45;;;;;;;5.22;3.30;;;;;;;3.37;93.67;97403.00;1757683;82;21421;-60
2021/04/07 03:55:13;;;;;;;4.70;2.80;;;;;;;3.44;93.41;97398.44;1757585;81;21195;-61
2021/04/07 03:57:46;;;;;;;6.77;3.60;;;;;;;3.43;93.07;97405.62;1758115;82;21010;-60
2021/04/07 04:00:17;;;;;;;4.70;2.87;;;;;;;3.43;93.25;97404.35;1757783;82;21037;-60
2021/04/07 04:02:45;;;;;;;6.47;3.02;;;;;;;3.43;92.83;97400.10;1757543;82;21204;-62
2021/04/07 04:05:14;;;;;;;5.42;3.45;;;;;;;3.32;92.92;97396.98;1757744;82;21172;-62
2021/04/07 04:07:43;;;;;;;6.53;3.45;;;;;;;3.25;93.11;97398.58;1757683;82;21476;-62
2021/04/07 04:10:13;;;;;;;6.05;3.52;;;;;;;3.20;93.34;97407.42;1757492;81;21065;-61
2021/04/07 04:12:42;;;;;;;6.75;3.58;;;;;;;3.14;93.34;97411.17;1757732;82;21587;-62
2021/04/07 04:15:13;;;;;;;6.72;3.20;;;;;;;3.09;93.44;97414.06;1757673;82;21287;-61
2021/04/07 04:17:44;;;;;;;5.45;3.30;;;;;;;3.07;93.53;97416.15;1757745;81;21034;-61
2021/04/07 04:20:14;;;;;;;6.37;3.20;;;;;;;3.05;93.42;97412.29;1757572;82;21484;-63
2021/04/07 04:22:43;;;;;;;4.67;2.87;;;;;;;3.01;93.42;97416.92;1757756;82;21022;-61
2021/04/07 04:25:18;;;;;;;5.95;3.27;;;;;;;3.08;93.78;97417.46;1757429;82;21183;-59
2021/04/07 04:27:48;;;;;;;5.62;3.25;;;;;;;3.14;93.70;97417.55;1757772;81;21183;-58
2021/04/07 04:30:22;;;;;;;4.78;2.90;;;;;;;3.23;92.98;97418.97;1768241;80;21046;-64
2021/04/07 04:32:50;;;;;;;4.72;2.95;;;;;;;3.18;92.87;97418.05;1771409;80;21077;-64
2021/04/07 04:35:18;;;;;;;4.58;2.98;;;;;;;3.18;92.49;97420.59;1775905;80;21038;-63
2021/04/07 04:37:47;;;;;;;6.12;3.10;;;;;;;3.16;92.60;97417.16;1772740;80;21041;-62
2021/04/07 04:40:16;;;;;;;4.90;2.70;;;;;;;3.21;92.57;97418.08;1772717;80;21011;-63
2021/04/07 04:42:45;;;;;;;4.40;2.60;;;;;;;3.22;92.16;97424.03;1776483;80;21608;-62
2021/04/07 04:45:13;;;;;;;4.28;3.08;;;;;;;3.18;92.03;97418.05;1776810;80;21077;-62
2021/04/07 04:47:42;;;;;;;5.60;3.10;;;;;;;3.23;91.92;97423.18;1782819;80;21038;-64
2021/04/07 04:50:12;;;;;;;5.75;2.72;;;;;;;3.24;91.78;97418.12;1782759;80;21050;-63
2021/04/07 04:52:40;;;;;;;3.27;2.40;;;;;;;3.21;91.56;97418.08;1782863;80;21204;-63
2021/04/07 04:55:10;;;;;;;5.58;3.27;;;;;;;3.19;91.61;97427.39;1782755;80;21039;-63
2021/04/07 04:57:38;;;;;;;3.80;2.45;;;;;;;3.18;91.64;97426.08;1782708;80;21192;-60
2021/04/07 05:00:08;;;;;;;5.00;2.72;;;;;;;3.12;91.77;97428.12;1782926;80;21038;-61
2021/04/07 05:02:36;;;;;;;3.75;2.30;;;;;;;3.08;92.01;97428.92;1782709;80;21053;-61
2021/04/07 05:05:06;;;;;;;4.33;2.85;;;;;;;3.12;92.15;97435.77;1783089;80;21215;-63
2021/04/07 05:07:34;;;;;;;5.95;2.60;;;;;;;3.17;91.82;97438.39;1782895;80;21186;-63
2021/04/07 05:10:03;;;;;;;3.65;2.33;;;;;;;3.15;91.51;97438.78;1783091;80;21050;-64
2021/04/07 05:12:30;;;;;;;4.62;2.70;;;;;;;3.14;91.43;97446.85;1782922;80;21045;-62
2021/04/07 05:14:59;;;;;;;4.20;2.50;;;;;;;3.08;91.40;97449.31;1783053;80;21184;-64
2021/04/07 05:17:28;;;;;;;4.30;2.65;;;;;;;3.05;91.74;97453.06;1782677;80;21449;-64
2021/04/07 05:19:57;;;;;;;3.98;2.77;;;;;;;3.03;91.62;97454.76;1785726;79;21006;-64
2021/04/07 05:22:25;;;;;;;4.83;3.33;;;;;;;2.96;91.70;97460.58;1779722;79;21135;-64
2021/04/07 05:24:54;;;;;;;5.40;3.55;;;;;;;2.92;91.79;97462.20;1773043;80;21188;-64
2021/04/07 05:27:22;;;;;;;5.85;3.83;;;;;;;2.92;92.02;97476.22;1780038;79;21175;-64
2021/04/07 05:29:51;;;;;;;5.33;3.47;;;;;;;2.98;92.21;97472.94;1783002;79;21204;-64
2021/04/07 05:32:19;;;;;;;13.03;4.00;;;;;;;3.00;91.74;97477.62;1782878;79;21114;-63
2021/04/07 05:34:47;;;;;;;7.03;4.62;;;;;;;3.03;91.62;97467.50;1786189;79;21175;-64
2021/04/07 05:37:15;;;;;;;7.47;4.58;;;;;;;3.07;91.39;97475.62;1782063;79;21009;-64
2021/04/07 05:39:43;;;;;;;7.15;4.97;;;;;;;3.12;91.21;97467.62;1783853;79;21041;-64
2021/04/07 05:42:12;;;;;;;9.05;6.40;;;;;;;3.17;91.25;97477.48;1785369;79;21164;-63
2021/04/07 05:44:40;;;;;;;7.50;5.62;;;;;;;3.17;91.05;97468.56;1791678;79;21099;-64
2021/04/07 05:47:08;;;;;;;11.12;6.80;;;;;;;3.09;90.99;97473.95;1778128;79;21049;-65
2021/04/07 05:49:38;;;;;;;9.53;6.55;;;;;;;3.13;91.41;97474.46;1786709;79;21050;-65
2021/04/07 05:52:06;;;;;;;11.68;7.03;;;;;;;3.18;91.20;97473.23;1775450;79;21466;-64
2021/04/07 05:54:33;;;;;;;12.85;8.55;;;;;;;3.20;91.03;97477.95;1779589;79;21095;-64
2021/04/07 05:57:01;;;;;;;12.70;8.93;;;;;;;3.13;91.07;97477.01;1772408;80;21151;-65
2021/04/07 05:59:29;;;;;;;11.05;8.35;;;;;;;3.10;91.18;97487.55;1783634;79;21175;-64
2021/04/07 06:01:57;;;;;;;12.00;8.28;;;;;;;3.10;91.27;97486.28;1781162;79;21151;-64
2021/04/07 06:04:25;;;;;;;10.53;8.10;;;;;;;3.06;93.40;97486.66;1776933;79;21231;-63
2021/04/07 06:06:53;;;;;;;11.08;8.05;;;;;;;3.10;94.51;97488.83;1777529;79;21211;-62
2021/04/07 06:09:22;;;;;;;11.40;8.68;;;;;;;3.21;94.63;97487.33;1768580;80;21002;-62
2021/04/07 06:11:53;;;;;;;10.90;7.65;;;;;;;3.22;94.16;97487.76;1765941;80;21191;-63
2021/04/07 06:14:21;;;;;;;13.08;8.30;;;;;;;3.14;94.41;97481.69;1777678;80;21024;-62
2021/04/07 06:16:50;;;;;;;31.80;18.42;;;;;;;3.04;94.59;97498.51;1767620;80;20977;-64
2021/04/07 06:19:18;;;;;;;22.50;13.53;;;;;;;3.06;94.40;97483.26;1770816;80;21002;-64
2021/04/07 06:21:46;;;;;;;31.62;19.75;;;;;;;3.02;94.70;97491.25;1771606;80;21102;-64
2021/04/07 06:24:14;;;;;;;16.95;10.30;;;;;;;3.07;94.96;97487.08;1773281;80;21174;-63
2021/04/07 06:26:42;;;;;;;20.25;11.68;;;;;;;3.09;94.65;97481.61;1776125;80;21167;-63
2021/04/07 06:29:10;;;;;;;13.00;7.83;;;;;;;3.14;94.62;97489.33;1776565;80;21025;-63
2021/04/07 06:31:40;;;;;;;18.87;11.90;;;;;;;3.19;94.58;97486.02;1776832;79;21053;-64
2021/04/07 06:34:08;;;;;;;16.37;9.23;;;;;;;3.21;94.45;97490.73;1775466;79;21004;-63
2021/04/07 06:36:36;;;;;;;22.82;14.73;;;;;;;3.19;94.72;97488.56;1781055;80;21005;-63
2021/04/07 06:39:05;;;;;;;26.80;17.87;;;;;;;3.31;95.17;97487.03;1739439;81;21085;-64
2021/04/07 06:41:34;;;;;;;11.12;8.20;;;;;;;3.44;94.81;97495.34;1716586;83;21204;-64
2021/04/07 06:44:04;;;;;;;10.38;6.20;;;;;;;3.59;93.91;97498.54;1720895;83;21248;-63
2021/04/07 06:46:32;;;;;;;9.83;6.70;;;;;;;3.70;93.49;97500.81;1727516;81;21073;-63
2021/04/07 06:49:01;;;;;;;17.48;12.55;;;;;;;3.83;93.56;97497.59;1759777;81;21091;-63
2021/04/07 06:51:31;;;;;;;8.63;5.85;;;;;;;3.98;93.49;97503.33;1759642;81;21068;-63
2021/04/07 06:54:00;;;;;;;7.25;4.10;;;;;;;3.99;92.60;97500.35;1765415;80;21081;-65
2021/04/07 06:56:28;;;;;;;6.62;3.83;;;;;;;3.86;91.47;97496.35;1769955;80;21021;-64
2021/04/07 06:58:58;;;;;;;5.62;3.55;;;;;;;3.78;91.86;97499.22;1748100;81;21021;-65
2021/04/07 07:01:26;;;;;;;7.25;3.85;;;;;;;3.83;91.44;97505.67;1772307;80;21187;-65
2021/04/07 07:03:54;;;;;;;6.25;4.00;;;;;;;3.90;91.68;97514.71;1769448;79;21172;-66
2021/04/07 07:06:24;;;;;;;5.37;3.60;;;;;;;3.93;89.87;97511.34;1768608;79;21037;-61
2021/04/07 07:08:52;;;;;;;6.08;3.60;;;;;;;3.88;89.58;97516.80;1768755;80;20969;-64
2021/04/07 07:11:21;;;;;;;6.05;3.85;;;;;;;3.90;90.16;97524.06;1768113;80;21144;-62
2021/04/07 07:13:51;;;;;;;6.62;3.72;;;;;;;3.97;90.09;97530.98;1769632;80;21030;-63
2021/04/07 07:16:27;;;;;;;7.85;3.80;;;;;;;3.99;90.02;97529.70;1744878;80;21052;-61
2021/04/07 07:18:56;;;;;;;5.95;3.95;;;;;;;4.00;89.70;97531.44;1769966;80;21026;-61
2021/04/07 07:21:25;;;;;;;5.67;3.40;;;;;;;4.06;89.14;97523.85;1779235;80;21050;-60
2021/04/07 07:23:53;;;;;;;5.05;2.62;;;;;;;4.02;88.26;97531.90;1782770;80;21113;-64
2021/04/07 07:26:21;;;;;;;7.92;3.80;;;;;;;3.90;88.28;97532.58;1782742;80;21046;-63
2021/04/07 07:28:56;;;;;;;6.78;3.25;;;;;;;3.95;88.34;97545.41;1782820;80;21046;-61
2021/04/07 07:31:29;;;;;;;4.97;3.08;;;;;;;3.94;88.04;97546.22;1782571;80;21217;-64
2021/04/07 07:34:04;;;;;;;5.35;3.27;;;;;;;3.83;87.89;97544.80;1782594;80;21068;-62
2021/04/07 07:36:34;;;;;;;6.65;2.92;;;;;;;3.84;88.10;97544.38;1782305;80;21505;-63
2021/04/07 07:41:43;;;;;;;4.97;2.80;;;;;;;3.99;87.54;97524.17;1870252;76;22140;-62
2021/04/07 07:44:14;;;;;;;3.85;2.40;;;;;;;3.95;86.99;97520.31;1758954;81;21559;-60
2021/04/07 07:46:44;;;;;;;6.78;2.80;;;;;;;3.95;86.57;97524.98;1776423;81;21304;-62
2021/04/07 07:49:18;;;;;;;5.47;3.20;;;;;;;3.96;86.13;97526.69;1759887;80;21342;-62
2021/04/07 07:51:48;;;;;;;4.60;2.60;;;;;;;3.96;85.57;97525.41;1776785;81;21647;-64
2021/04/07 07:54:21;;;;;;;4.92;2.77;;;;;;;3.85;85.52;97511.66;1759874;81;21157;-64
2021/04/07 07:56:51;;;;;;;5.35;3.02;;;;;;;3.76;85.52;97512.80;1776635;81;21293;-63
2021/04/07 07:59:31;;;;;;;4.65;2.52;;;;;;;3.77;86.02;97517.08;1759779;80;21153;-63
2021/04/07 08:01:59;;;;;;;6.83;3.37;;;;;;;3.77;85.60;97513.25;1776472;80;21150;-63
2021/04/07 08:04:27;;;;;;;8.08;4.12;;;;;;;3.74;85.58;97513.19;1760035;80;21368;-64
2021/04/07 08:06:57;;;;;;;6.50;3.83;;;;;;;3.80;85.55;97514.56;1728220;83;21315;-61
2021/04/07 08:09:28;;;;;;;4.72;3.27;;;;;;;3.78;85.71;97520.91;1745859;81;21628;-61
2021/04/07 08:11:58;;;;;;;4.97;2.77;;;;;;;3.77;86.10;97521.76;1759949;81;21154;-64
2021/04/07 08:14:27;;;;;;;4.67;2.60;;;;;;;3.75;86.18;97525.13;1728449;82;21129;-62
2021/04/07 08:16:56;;;;;;;3.75;2.15;;;;;;;3.68;86.34;97528.84;1746357;82;21289;-64
2021/04/07 08:19:24;;;;;;;4.17;2.52;;;;;;;3.59;86.22;97523.63;1756258;81;21303;-66
2021/04/07 08:21:58;;;;;;;4.55;2.60;;;;;;;3.45;86.32;97519.98;1737384;81;21140;-65
2021/04/07 08:24:27;;;;;;;4.58;2.55;;;;;;;3.32;86.66;97503.64;1752837;80;21291;-65
2021/04/07 08:26:57;;;;;;;5.30;2.60;;;;;;;3.25;86.84;97524.77;1725195;82;21247;-65
2021/04/07 08:29:25;;;;;;;5.12;2.80;;;;;;;3.31;87.19;97526.55;1726064;82;21239;-72
2021/04/07 08:31:54;;;;;;;5.15;2.65;;;;;;;3.35;87.10;97518.13;1714067;82;21208;-66
2021/04/07 08:34:23;;;;;;;5.67;2.65;;;;;;;3.33;86.89;97510.87;1744662;81;21129;-67
2021/04/07 08:36:51;;;;;;;5.03;2.52;;;;;;;3.30;86.79;97522.30;1744309;81;21128;-66
2021/04/07 08:39:20;;;;;;;4.15;2.47;;;;;;;3.34;86.93;97517.70;1725604;81;21170;-67
2021/04/07 08:41:48;;;;;;;3.80;2.50;;;;;;;3.41;87.01;97524.59;1735490;81;21178;-66
2021/04/07 08:44:18;;;;;;;5.00;3.22;;;;;;;3.48;87.00;97523.86;1731518;80;21596;-63
2021/04/07 08:46:52;;;;;;;7.47;3.20;;;;;;;3.58;86.89;97518.06;1774797;80;21173;-66
2021/04/07 08:49:39;;;;;;;4.95;3.17;;;;;;;3.62;86.06;97519.84;1777128;80;21150;-66
2021/04/07 08:52:23;;;;;;;6.40;4.08;;;;;;;3.65;85.65;97525.40;1779335;79;21140;-65
2021/04/07 08:54:59;;;;;;;7.05;4.55;;;;;;;3.76;85.12;97525.55;1778379;80;21156;-66
2021/04/07 08:57:34;;;;;;;9.03;4.95;;;;;;;3.77;84.98;97532.39;1774465;80;21170;-65
2021/04/07 09:00:11;;;;;;;8.30;4.78;;;;;;;3.76;85.04;97529.38;1778727;79;21109;-66
2021/04/07 09:02:55;;;;;;;8.68;4.95;;;;;;;3.76;85.03;97534.06;1774297;79;21118;-66
2021/04/07 09:05:34;;;;;;;7.08;3.85;;;;;;;3.71;85.15;97529.30;1770122;80;21660;-66
2021/04/07 09:08:03;;;;;;;6.58;3.90;;;;;;;3.65;84.72;97519.02;1774495;79;21288;-66
2021/04/07 09:10:47;;;;;;;7.75;4.10;;;;;;;3.54;84.39;97515.05;1778143;78;21150;-65
2021/04/07 09:13:25;;;;;;;6.55;4.10;;;;;;;3.53;84.87;97527.34;1774466;79;21300;-66
2021/04/07 09:16:10;;;;;;;7.20;3.70;;;;;;;3.56;84.93;97522.31;1779904;79;21470;-66
2021/04/07 09:18:47;;;;;;;7.30;4.30;;;;;;;3.59;85.02;97527.45;1782949;79;21146;-65
2021/04/07 09:21:24;;;;;;;5.55;4.00;;;;;;;3.69;85.36;97526.75;1773407;79;21154;-65
2021/04/07 09:23:57;;;;;;;6.75;4.25;;;;;;;3.77;85.85;97527.28;1772859;80;21589;-66
2021/04/07 09:26:28;;;;;;;8.43;4.47;;;;;;;3.72;86.21;97527.64;1774315;80;21175;-61
2021/04/07 09:28:56;;;;;;;8.23;4.85;;;;;;;3.69;86.93;97534.41;1773611;79;21323;-61
2021/04/07 09:31:36;;;;;;;7.03;4.55;;;;;;;3.75;87.33;97539.16;1789962;79;21213;-61
2021/04/07 09:34:06;;;;;;;8.28;5.70;;;;;;;3.78;86.85;97542.59;1777838;79;21130;-54
2021/04/07 09:36:38;;;;;;;7.05;5.08;;;;;;;3.79;86.59;97539.23;1770341;80;21087;-56
2021/04/07 09:39:16;;;;;;;8.78;5.85;;;;;;;3.74;86.73;97548.91;1787041;79;21113;-60
2021/04/07 09:41:45;;;;;;;8.65;5.62;;;;;;;3.77;87.10;97542.17;1778850;79;21136;-59
2021/04/07 09:44:16;;;;;;;9.65;6.00;;;;;;;3.83;86.59;97543.52;1789208;78;21185;-56
2021/04/07 09:46:56;;;;;;;7.95;5.37;;;;;;;3.90;86.77;97550.86;1794191;79;21090;-53
2021/04/07 09:49:26;;;;;;;7.42;4.92;;;;;;;3.99;86.10;97545.87;1781826;79;21146;-56
2021/04/07 09:51:55;;;;;;;7.60;3.95;;;;;;;3.97;86.27;97544.13;1787493;78;21156;-58
2021/04/07 09:54:27;;;;;;;6.92;4.25;;;;;;;3.99;86.00;97543.31;1790273;78;21157;-60
2021/04/07 09:57:06;;;;;;;6.85;4.33;;;;;;;4.02;85.88;97540.83;1779668;79;21181;-55
2021/04/07 09:59:47;;;;;;;7.20;4.45;;;;;;;4.00;85.92;97542.50;1789219;78;21146;-53
2021/04/07 10:02:29;;;;;;;7.62;4.05;;;;;;;4.02;86.25;97546.33;1787487;78;21141;-57
2021/04/07 10:04:59;;;;;;;6.37;4.15;;;;;;;4.01;85.70;97542.92;1783282;79;21628;-54
2021/04/07 10:07:30;;;;;;;6.72;3.95;;;;;;;3.98;85.81;97553.52;1779499;79;21099;-54
2021/04/07 10:10:00;;;;;;;7.35;4.05;;;;;;;3.96;86.14;97545.83;1780282;80;21340;-54
2021/04/07 10:12:34;;;;;;;5.28;3.05;;;;;;;4.03;86.37;97542.53;1782453;78;21272;-54
2021/04/07 10:15:06;;;;;;;6.45;3.80;;;;;;;4.10;86.26;97550.72;1780787;80;21126;-54
2021/04/07 10:17:39;;;;;;;6.60;3.70;;;;;;;4.12;85.90;97548.17;1780470;78;21138;-55
2021/04/07 10:20:13;;;;;;;5.95;3.58;;;;;;;4.06;85.93;97550.23;1778610;80;21107;-55
2021/04/07 10:22:43;;;;;;;6.83;3.67;;;;;;;3.98;86.18;97556.08;1780038;79;21258;-59
2021/04/07 10:25:15;;;;;;;5.22;2.98;;;;;;;3.98;86.54;97567.14;1790619;79;21117;-60
2021/04/07 10:27:45;;;;;;;6.67;3.50;;;;;;;4.04;86.83;97565.94;1788085;79;21503;-59
2021/04/07 10:30:18;;;;;;;6.70;3.62;;;;;;;4.06;87.02;97559.59;1778088;78;21244;-59
2021/04/07 10:32:49;;;;;;;5.72;3.62;;;;;;;3.92;86.64;97567.06;1779574;80;21272;-60
2021/04/07 10:35:27;;;;;;;6.05;4.12;;;;;;;3.83;87.39;97560.53;1780613;79;21533;-64
2021/04/07 10:38:05;;;;;;;5.95;4.00;;;;;;;3.74;87.50;97564.21;1762102;80;21307;-59
2021/04/07 10:40:38;;;;;;;6.22;4.03;;;;;;;3.76;87.47;97560.00;1778016;80;21185;-58
2021/04/07 10:43:24;;;;;;;6.80;4.03;;;;;;;3.80;87.74;97561.77;1767055;80;21264;-60
2021/04/07 10:46:02;;;;;;;8.33;4.92;;;;;;;3.74;87.74;97559.11;1767288;79;21183;-61
2021/04/07 10:48:35;;;;;;;9.25;4.20;;;;;;;3.54;88.26;97562.66;1767465;79;21109;-60
2021/04/07 10:51:06;;;;;;;7.30;5.15;;;;;;;3.47;89.11;97552.75;1765669;80;21132;-62
2021/04/07 10:53:43;;;;;;;7.83;4.33;;;;;;;3.47;89.00;97552.33;1767799;80;21164;-59
2021/04/07 10:56:22;;;;;;;7.47;3.95;;;;;;;3.44;89.42;97561.22;1767257;80;21272;-61
2021/04/07 10:58:59;;;;;;;8.85;4.53;;;;;;;3.46;89.68;97567.59;1771228;80;21110;-60
2021/04/07 11:01:41;;;;;;;7.37;4.87;;;;;;;3.49;89.25;97553.64;1764957;80;21236;-60
2021/04/07 11:04:17;;;;;;;7.67;4.70;;;;;;;3.45;89.26;97551.87;1779119;80;21284;-61
2021/04/07 11:06:48;;;;;;;6.97;4.75;;;;;;;3.55;90.07;97552.45;1769568;79;21261;-58
2021/04/07 11:09:16;;;;;;;7.35;4.53;;;;;;;3.67;89.66;97547.97;1753257;80;21145;-57
2021/04/07 11:11:44;;;;;;;8.88;5.37;;;;;;;3.75;89.61;97559.56;1771929;80;21143;-58
2021/04/07 11:14:13;;;;;;;9.48;5.15;;;;;;;3.95;90.27;97550.52;1804656;78;21149;-56
2021/04/07 11:16:41;;;;;;;9.53;4.97;;;;;;;4.09;89.37;97550.27;1780592;79;21130;-51
2021/04/07 11:19:17;;;;;;;10.00;5.95;;;;;;;4.09;88.78;97552.81;1780957;80;21313;-55
2021/04/07 11:21:45;;;;;;;9.20;5.37;;;;;;;3.97;88.23;97547.57;1770840;80;21668;-54
2021/04/07 11:24:14;;;;;;;7.17;5.12;;;;;;;3.88;88.79;97554.66;1779911;78;21079;-55
2021/04/07 11:26:43;;;;;;;8.20;5.37;;;;;;;3.98;89.39;97553.10;1767431;80;21259;-55
2021/04/07 11:29:11;;;;;;;6.78;4.67;;;;;;;4.08;88.42;97544.73;1767898;80;21140;-54
2021/04/07 11:31:39;;;;;;;8.50;5.60;;;;;;;4.06;87.67;97541.72;1763925;80;21581;-54
2021/04/07 11:34:12;;;;;;;8.55;4.83;;;;;;;4.06;88.01;97548.95;1764038;79;21140;-54
2021/04/07 11:39:18;;;;;;;8.23;5.05;;;;;;;4.06;87.67;97546.83;1765586;79;21172;-57
2021/04/07 11:42:02;;;;;;;8.20;4.80;;;;;;;3.97;87.34;97559.05;1769209;79;21285;-53
2021/04/07 11:44:28;;;;;;;9.10;5.47;;;;;;;3.86;87.35;97564.41;1770989;79;21110;-54
2021/04/07 11:46:59;;;;;;;8.10;4.37;;;;;;;3.80;87.43;97571.98;1684910;84;21166;-54
2021/04/07 11:49:27;;;;;;;7.78;4.60;;;;;;;3.82;87.68;97564.78;1726023;82;21149;-56
2021/04/07 11:51:55;;;;;;;6.08;4.10;;;;;;;3.86;86.93;97573.33;1728364;82;21301;-54
2021/04/07 11:54:23;;;;;;;9.23;4.80;;;;;;;3.86;86.96;97566.95;1731237;82;21144;-57
2021/04/07 11:56:51;;;;;;;7.75;3.92;;;;;;;3.83;86.47;97570.74;1729205;82;21276;-56
2021/04/07 11:59:23;;;;;;;8.28;4.90;;;;;;;3.74;86.28;97563.82;1728677;82;21288;-56